Time;durP1;ratioP1;P1;durP2;ratioP2;P2;SDS_P1;SDS_P2;PMS_P1;PMS_P2;Temp;Humidity;BMP_temperature;BMP_pressure;BME280_temperature;BME280_humidity;BME280_pressure;Samples;Min_cycle;Max_cycle;Signal;HPM_P1;HPM_P2
2021/08/29 09:33:56;;;;;;;;;;;;;;;;;;1565995;27;83669;-90
2021/08/29 09:34:41;;;;;;;;;;;;;;;;;;1566106;28;85252;-95
2021/08/29 09:35:27;;;;;;;;;;;;;;;;;;1557393;28;83781;-90
2021/08/29 09:36:12;;;;;;;;;;;;;;;;;;1555285;28;83994;-92
2021/08/29 09:37:06;;;;;;;;;;;;;;;;;;1543078;27;97983;-95
2021/08/29 09:37:51;;;;;;;;;;;;;;;;;;1562294;28;86145;-92
2021/08/29 09:38:36;;;;;;;;;;;;;;;;;;1547243;28;86089;-92
2021/08/29 09:39:21;;;;;;;;;;;;;;;;;;1551712;28;84925;-91
2021/08/29 09:40:06;;;;;;;;;;;;;;;;;;1555628;27;86056;-94
2021/08/29 09:43:25;;;;;;;;;;;;;;;;;;1562340;27;83831;-93
2021/08/29 09:44:11;;;;;;;;;;;;;;;;;;1567099;27;83646;-92
2021/08/29 09:44:56;;;;;;;;;;;;;;;;;;1555619;28;86113;-92
2021/08/29 09:45:41;;;;;;;;;;;;;;;;;;1555695;28;84792;-93
2021/08/29 09:46:26;;;;;;;;;;;;;;;;;;1555875;28;85074;-93
2021/08/29 09:47:14;;;;;;;;;;;;;;;;;;1549544;28;84903;-92
2021/08/29 09:47:59;;;;;;;;;;;;;;;;;;1551789;28;85852;-93
2021/08/29 09:48:44;;;;;;;;;;;;;;;;;;1555622;28;85725;-94
2021/08/29 09:49:29;;;;;;;;;;;;;;;;;;1561884;28;84511;-92
2021/08/29 09:50:55;;;;;;;;;;;;;;;;;;1570454;27;83506;-92
2021/08/29 09:51:40;;;;;;;;;;;;;;;;;;1562081;28;83566;-92
2021/08/29 09:52:26;;;;;;;;;;;;;;;;;;1556000;28;85263;-92
2021/08/29 09:53:13;;;;;;;;;;;;;;;;;;1555905;28;83335;-93
2021/08/29 09:53:58;;;;;;;;;;;;;;;;;;1555771;28;83779;-91
2021/08/29 09:54:43;;;;;;;;;;;;;;;;;;1555836;28;86077;-92
2021/08/29 09:55:28;;;;;;;;;;;;;;;;;;1555951;28;84977;-92
2021/08/29 09:56:16;;;;;;;;;;;;;;;;;;1555735;28;85191;-91
2021/08/29 09:57:01;;;;;;;;;;;;;;;;;;1559785;28;85133;-91
2021/08/29 09:57:55;;;;;;;;;;;;;;;;;;1549786;28;83724;-92
2021/08/29 09:58:40;;;;;;;;;;;;;;;;;;1552917;28;85121;-92
2021/08/29 09:59:28;;;;;;;;;;;;;;;;;;1552800;28;85580;-92
2021/08/29 10:00:13;;;;;;;;;;;;;;;;;;1549763;28;83444;-92
2021/08/29 10:01:12;;;;;;;;;;;;;;;;;;;;;
2021/08/29 10:03:05;;;;;;;;;;;;;;;;;;1562588;28;83602;-95
2021/08/29 10:03:59;;;;;;;;;;;;;;;;;;1555938;28;85666;-93
2021/08/29 10:04:53;;;;;;;;;;;;;;;;;;1549815;28;85674;-92
2021/08/29 10:05:38;;;;;;;;;;;;;;;;;;1554005;28;83556;-93
2021/08/29 10:06:25;;;;;;;;;;;;;;;;;;1549705;28;85158;-91
2021/08/29 10:07:10;;;;;;;;;;;;;;;;;;1552117;28;85301;-92
2021/08/29 10:07:55;;;;;;;;;;;;;;;;;;1552056;28;86190;-93
2021/08/29 10:08:41;;;;;;;;;;;;;;;;;;1549601;28;85917;-92
2021/08/29 10:09:29;;;;;;;;;;;;;;;;;;1551779;28;84805;-93
2021/08/29 10:10:14;;;;;;;;;;;;;;;;;;1552047;28;86173;-92
2021/08/29 10:10:59;;;;;;;;;;;;;;;;;;1549696;28;86024;-93
2021/08/29 10:11:45;;;;;;;;;;;;;;;;;;1549936;28;84812;-94
2021/08/29 10:12:33;;;;;;;;;;;;;;;;;;1545657;28;86247;-94
2021/08/29 10:13:18;;;;;;;;;;;;;;;;;;1548629;28;85959;-94
2021/08/29 10:14:12;;;;;;;;;;;;;;;;;;1552002;28;86956;-93
2021/08/29 10:14:59;;;;;;;;;;;;;;;;;;1552704;28;86563;-94
2021/08/29 10:15:45;;;;;;;;;;;;;;;;;;1549603;28;85500;-94
2021/08/29 10:16:30;;;;;;;;;;;;;;;;;;1551943;28;86306;-93
2021/08/29 10:17:15;;;;;;;;;;;;;;;;;;1552411;28;85595;-92
2021/08/29 10:18:00;;;;;;;;;;;;;;;;;;1555443;28;84394;-93
2021/08/29 10:18:45;;;;;;;;;;;;;;;;;;1551328;28;85590;-93
2021/08/29 10:19:30;;;;;;;;;;;;;;;;;;1551609;28;86225;-95
2021/08/29 10:20:20;;;;;;;;;;;;;;;;;;1551161;28;85189;-93
2021/08/29 10:21:05;;;;;;;;;;;;;;;;;;1558223;28;85496;-91
2021/08/29 10:21:50;;;;;;;;;;;;;;;;;;1559389;28;85710;-93
2021/08/29 10:22:44;;;;;;;;;;;;;;;;;;1562045;28;83896;-92
2021/08/29 10:23:29;;;;;;;;;;;;;;;;;;1561991;28;85530;-94
2021/08/29 10:24:17;;;;;;;;;;;;;;;;;;1558829;28;85151;-94
2021/08/29 10:25:05;;;;;;;;;;;;;;;;;;1559593;28;85489;-93
2021/08/29 10:25:53;;;;;;;;;;;;;;;;;;1561900;28;84981;-94
2021/08/29 10:26:40;;;;;;;;;;;;;;;;;;1555767;28;85790;-93
2021/08/29 10:27:25;;;;;;;;;;;;;;;;;;1556382;28;85623;-92
2021/08/29 10:28:10;;;;;;;;;;;;;;;;;;1555875;28;86817;-94
2021/08/29 10:28:58;;;;;;;;;;;;;;;;;;1561884;28;84909;-93
2021/08/29 10:29:49;;;;;;;;;;;;;;;;;;1562152;28;84688;-93
2021/08/29 10:30:34;;;;;;;;;;;;;;;;;;1561988;28;85465;-95
2021/08/29 10:31:19;;;;;;;;;;;;;;;;;;1561819;28;86604;-94
2021/08/29 10:32:04;;;;;;;;;;;;;;;;;;1561978;28;86272;-94
2021/08/29 10:32:51;;;;;;;;;;;;;;;;;;1560044;28;85475;-93
2021/08/29 10:33:39;;;;;;;;;;;;;;;;;;1561839;28;84150;-94
2021/08/29 10:34:24;;;;;;;;;;;;;;;;;;1561965;28;85779;-94
2021/08/29 10:35:11;;;;;;;;;;;;;;;;;;1559595;28;85772;-93
2021/08/29 10:35:57;;;;;;;;;;;;;;;;;;1564759;27;83513;-93
2021/08/29 10:36:44;;;;;;;;;;;;;;;;;;1562000;28;83457;-95
2021/08/29 10:37:31;;;;;;;;;;;;;;;;;;1559631;28;83633;-95
2021/08/29 10:38:19;;;;;;;;;;;;;;;;;;1561907;28;83495;-94
2021/08/29 10:39:04;;;;;;;;;;;;;;;;;;1562117;28;83521;-94
2021/08/29 10:39:51;;;;;;;;;;;;;;;;;;1559699;28;83486;-95
2021/08/29 10:40:37;;;;;;;;;;;;;;;;;;1561984;28;83069;-94
2021/08/29 10:41:22;;;;;;;;;;;;;;;;;;1562123;28;83429;-95
2021/08/29 10:42:07;;;;;;;;;;;;;;;;;;1559829;28;83363;-95
2021/08/29 10:42:55;;;;;;;;;;;;;;;;;;1562149;28;83066;-95
2021/08/29 10:43:43;;;;;;;;;;;;;;;;;;1562035;28;83474;-95
2021/08/29 10:44:37;;;;;;;;;;;;;;;;;;1559431;27;83391;-95
2021/08/29 10:45:22;;;;;;;;;;;;;;;;;;1561966;28;82610;-93
2021/08/29 10:46:07;;;;;;;;;;;;;;;;;;1561831;28;83537;-95
2021/08/29 10:46:52;;;;;;;;;;;;;;;;;;1559956;28;82802;-95
2021/08/29 10:47:37;;;;;;;;;;;;;;;;;;1561795;28;83694;-93
2021/08/29 10:48:25;;;;;;;;;;;;;;;;;;1562193;27;83501;-94
2021/08/29 10:49:10;;;;;;;;;;;;;;;;;;1559624;28;83640;-93
2021/08/29 10:49:56;;;;;;;;;;;;;;;;;;1555635;28;83282;-94
2021/08/29 10:50:42;;;;;;;;;;;;;;;;;;1551332;28;83466;-93
2021/08/29 10:51:27;;;;;;;;;;;;;;;;;;1555677;28;83355;-93
2021/08/29 10:52:12;;;;;;;;;;;;;;;;;;1555516;28;83544;-93
2021/08/29 10:52:57;;;;;;;;;;;;;;;;;;1554518;28;83520;-94
2021/08/29 10:53:42;;;;;;;;;;;;;;;;;;1549462;28;83408;-95
2021/08/29 10:54:27;;;;;;;;;;;;;;;;;;1555619;28;83238;-94
2021/08/29 10:55:14;;;;;;;;;;;;;;;;;;1549211;28;83563;-93
2021/08/29 10:55:59;;;;;;;;;;;;;;;;;;1549402;28;83440;-93
2021/08/29 10:56:45;;;;;;;;;;;;;;;;;;1551712;28;83260;-94
2021/08/29 10:57:30;;;;;;;;;;;;;;;;;;1550360;28;83025;-93
2021/08/29 10:58:15;;;;;;;;;;;;;;;;;;1549461;28;84030;-93
2021/08/29 10:59:00;;;;;;;;;;;;;;;;;;1550966;28;85952;-93
2021/08/29 10:59:45;;;;;;;;;;;;;;;;;;1547202;28;86427;-93
2021/08/29 11:00:30;;;;;;;;;;;;;;;;;;1549482;28;85624;-94
2021/08/29 11:01:18;;;;;;;;;;;;;;;;;;1551691;28;85491;-96
2021/08/29 11:02:04;;;;;;;;;;;;;;;;;;1544398;28;83906;-95
2021/08/29 11:02:49;;;;;;;;;;;;;;;;;;1545411;28;85288;-96
2021/08/29 11:03:34;;;;;;;;;;;;;;;;;;1547222;28;87304;-92
2021/08/29 11:04:24;;;;;;;;;;;;;;;;;;1543311;28;87260;-94
2021/08/29 11:05:09;;;;;;;;;;;;;;;;;;1543713;28;86538;-95
2021/08/29 11:05:55;;;;;;;;;;;;;;;;;;1534030;28;91207;-94
2021/08/29 11:06:40;;;;;;;;;;;;;;;;;;1526928;28;84715;-94
2021/08/29 11:07:25;;;;;;;;;;;;;;;;;;1519987;28;114200;-93
2021/08/29 11:08:10;;;;;;;;;;;;;;;;;;1514082;28;120333;-94
2021/08/29 11:08:55;;;;;;;;;;;;;;;;;;1509168;28;111258;-93
2021/08/29 11:09:41;;;;;;;;;;;;;;;;;;1508122;28;84583;-95
2021/08/29 11:10:26;;;;;;;;;;;;;;;;;;1508237;28;85187;-93
2021/08/29 11:11:11;;;;;;;;;;;;;;;;;;1510290;28;105686;-93
2021/08/29 11:11:56;;;;;;;;;;;;;;;;;;1507594;28;119863;-94
2021/08/29 11:12:41;;;;;;;;;;;;;;;;;;1507804;28;120753;-94
2021/08/29 11:13:26;;;;;;;;;;;;;;;;;;1509817;28;117910;-93
2021/08/29 11:14:11;;;;;;;;;;;;;;;;;;1509742;28;110890;-95
2021/08/29 11:15:00;;;;;;;;;;;;;;;;;;1513053;28;111018;-94
2021/08/29 11:15:45;;;;;;;;;;;;;;;;;;1514480;28;108344;-92
2021/08/29 11:16:30;;;;;;;;;;;;;;;;;;1514920;28;110965;-94
2021/08/29 11:17:18;;;;;;;;;;;;;;;;;;1511634;28;113196;-94
2021/08/29 11:18:05;;;;;;;;;;;;;;;;;;1508026;28;109058;-95
2021/08/29 11:19:11;;;;;;;;;;;;;;;;;;1512290;28;84785;-95
2021/08/29 11:19:58;;;;;;;;;;;;;;;;;;1509439;28;103778;-94
2021/08/29 11:20:43;;;;;;;;;;;;;;;;;;1510550;28;89358;-96
2021/08/29 11:21:36;;;;;;;;;;;;;;;;;;1503902;28;133400;-95
2021/08/29 11:22:21;;;;;;;;;;;;;;;;;;1494374;28;108299;-95
2021/08/29 11:23:07;;;;;;;;;;;;;;;;;;1492083;28;85113;-95
2021/08/29 11:23:52;;;;;;;;;;;;;;;;;;1495697;28;84939;-92
2021/08/29 11:24:37;;;;;;;;;;;;;;;;;;1497407;28;127020;-94
2021/08/29 11:25:22;;;;;;;;;;;;;;;;;;1495575;28;125240;-92
2021/08/29 11:26:07;;;;;;;;;;;;;;;;;;1494629;28;126141;-92
2021/08/29 11:26:52;;;;;;;;;;;;;;;;;;1497522;28;126848;-92
2021/08/29 11:27:40;;;;;;;;;;;;;;;;;;1492710;28;130001;-92
2021/08/29 11:28:25;;;;;;;;;;;;;;;;;;1498230;28;123343;-92
2021/08/29 11:29:10;;;;;;;;;;;;;;;;;;1495322;28;128593;-92
2021/08/29 11:29:55;;;;;;;;;;;;;;;;;;1494028;28;131316;-91
2021/08/29 11:30:40;;;;;;;;;;;;;;;;;;1490694;28;135398;-92
2021/08/29 11:31:26;;;;;;;;;;;;;;;;;;1493607;28;103472;-91
2021/08/29 11:32:11;;;;;;;;;;;;;;;;;;1497919;28;121725;-92
2021/08/29 11:32:56;;;;;;;;;;;;;;;;;;1506566;28;109538;-92
2021/08/29 11:33:41;;;;;;;;;;;;;;;;;;1508056;28;115929;-91
2021/08/29 11:34:26;;;;;;;;;;;;;;;;;;1514685;28;110801;-92
2021/08/29 11:35:11;;;;;;;;;;;;;;;;;;1516828;28;108636;-92
2021/08/29 11:35:58;;;;;;;;;;;;;;;;;;1524027;28;102422;-92
2021/08/29 11:36:43;;;;;;;;;;;;;;;;;;1531890;28;95567;-92
2021/08/29 11:37:28;;;;;;;;;;;;;;;;;;1536662;28;97960;-90
2021/08/29 11:38:13;;;;;;;;;;;;;;;;;;1538496;28;95194;-91
2021/08/29 11:38:59;;;;;;;;;;;;;;;;;;1544907;28;88059;-92
2021/08/29 11:39:44;;;;;;;;;;;;;;;;;;1546234;28;91481;-92
2021/08/29 11:40:29;;;;;;;;;;;;;;;;;;1548865;28;86020;-91
2021/08/29 11:41:14;;;;;;;;;;;;;;;;;;1553980;28;89188;-94
2021/08/29 11:42:01;;;;;;;;;;;;;;;;;;1553466;28;85047;-96
2021/08/29 11:42:47;;;;;;;;;;;;;;;;;;1552112;28;85965;-93
2021/08/29 11:43:32;;;;;;;;;;;;;;;;;;1553017;28;85355;-96
2021/08/29 11:44:17;;;;;;;;;;;;;;;;;;1548989;28;86934;-94
2021/08/29 11:45:02;;;;;;;;;;;;;;;;;;1549236;28;86117;-93
2021/08/29 11:45:47;;;;;;;;;;;;;;;;;;1550317;28;83035;-94
2021/08/29 11:46:34;;;;;;;;;;;;;;;;;;1548605;28;86795;-94
2021/08/29 11:47:20;;;;;;;;;;;;;;;;;;1548758;28;87484;-95
2021/08/29 11:48:05;;;;;;;;;;;;;;;;;;1545583;28;86680;-95
2021/08/29 11:48:50;;;;;;;;;;;;;;;;;;1543754;28;86887;-94
2021/08/29 11:49:35;;;;;;;;;;;;;;;;;;1545882;28;86655;-94
2021/08/29 11:50:20;;;;;;;;;;;;;;;;;;1545487;28;87329;-96
2021/08/29 11:51:05;;;;;;;;;;;;;;;;;;1544260;28;85795;-95
2021/08/29 11:51:51;;;;;;;;;;;;;;;;;;1544626;28;85357;-95
2021/08/29 11:52:37;;;;;;;;;;;;;;;;;;1545943;28;85049;-94
2021/08/29 11:53:22;;;;;;;;;;;;;;;;;;1552384;28;86196;-95
2021/08/29 11:54:07;;;;;;;;;;;;;;;;;;1550342;28;85496;-93
2021/08/29 11:54:52;;;;;;;;;;;;;;;;;;1552409;28;84533;-93
2021/08/29 11:55:37;;;;;;;;;;;;;;;;;;1550281;28;85969;-92
2021/08/29 11:56:23;;;;;;;;;;;;;;;;;;1551982;28;86644;-92
2021/08/29 11:57:08;;;;;;;;;;;;;;;;;;1558420;28;85787;-91
2021/08/29 11:57:53;;;;;;;;;;;;;;;;;;1560587;28;86680;-96
2021/08/29 11:58:38;;;;;;;;;;;;;;;;;;1563041;28;85202;-94
2021/08/29 11:59:23;;;;;;;;;;;;;;;;;;1562996;28;85353;-94
2021/08/29 12:00:10;;;;;;;;;;;;;;;;;;1561010;28;84927;-94
2021/08/29 12:00:55;;;;;;;;;;;;;;;;;;1562848;28;88111;-94
2021/08/29 12:01:49;;;;;;;;;;;;;;;;;;1562792;28;86213;-95
2021/08/29 12:02:34;;;;;;;;;;;;;;;;;;1562522;28;84071;-95
2021/08/29 12:03:19;;;;;;;;;;;;;;;;;;1563161;28;86427;-95
2021/08/29 12:04:07;;;;;;;;;;;;;;;;;;1562849;27;84667;-96
2021/08/29 12:04:52;;;;;;;;;;;;;;;;;;1560771;28;85690;-95
2021/08/29 12:05:39;;;;;;;;;;;;;;;;;;1563080;28;84473;-95
2021/08/29 12:06:25;;;;;;;;;;;;;;;;;;1563123;28;85738;-95
2021/08/29 12:07:12;;;;;;;;;;;;;;;;;;1560782;28;83974;-96
2021/08/29 12:07:57;;;;;;;;;;;;;;;;;;1563396;28;85619;-94
2021/08/29 12:08:42;;;;;;;;;;;;;;;;;;1563119;28;85840;-95
2021/08/29 12:09:27;;;;;;;;;;;;;;;;;;1561262;28;86149;-95
2021/08/29 12:10:12;;;;;;;;;;;;;;;;;;1562989;28;86316;-94
2021/08/29 12:10:58;;;;;;;;;;;;;;;;;;1563100;28;86392;-95
2021/08/29 12:11:43;;;;;;;;;;;;;;;;;;1561224;28;85138;-95
2021/08/29 12:12:28;;;;;;;;;;;;;;;;;;1563174;28;85875;-94
2021/08/29 12:13:13;;;;;;;;;;;;;;;;;;1563155;28;84863;-94
2021/08/29 12:13:58;;;;;;;;;;;;;;;;;;1560452;28;84117;-96
2021/08/29 12:14:43;;;;;;;;;;;;;;;;;;1563099;28;85178;-95
2021/08/29 12:15:29;;;;;;;;;;;;;;;;;;1563284;28;84917;-94
2021/08/29 12:16:16;;;;;;;;;;;;;;;;;;1543466;28;100099;-94
2021/08/29 12:17:02;;;;;;;;;;;;;;;;;;1540442;28;94119;-93
2021/08/29 12:17:47;;;;;;;;;;;;;;;;;;1543822;28;103451;-92
2021/08/29 12:18:32;;;;;;;;;;;;;;;;;;1535992;28;102552;-94
2021/08/29 12:19:17;;;;;;;;;;;;;;;;;;1529513;28;105828;-93
2021/08/29 12:20:02;;;;;;;;;;;;;;;;;;1531779;28;109177;-92
2021/08/29 12:20:50;;;;;;;;;;;;;;;;;;1531502;28;107573;-96
2021/08/29 12:21:35;;;;;;;;;;;;;;;;;;1531364;28;96659;-93
2021/08/29 12:22:20;;;;;;;;;;;;;;;;;;1538343;28;95678;-92
2021/08/29 12:23:06;;;;;;;;;;;;;;;;;;1543801;28;98231;-95
2021/08/29 12:23:51;;;;;;;;;;;;;;;;;;1542318;28;90843;-93
2021/08/29 12:24:36;;;;;;;;;;;;;;;;;;1544806;28;104887;-93
2021/08/29 12:25:21;;;;;;;;;;;;;;;;;;1543443;28;101244;-94
2021/08/29 12:26:06;;;;;;;;;;;;;;;;;;1541845;28;101484;-96
2021/08/29 12:26:51;;;;;;;;;;;;;;;;;;1541787;28;105822;-94
2021/08/29 12:28:52;;;;;;;;;;;;;;;;;;1528663;28;96295;-93
2021/08/29 12:29:40;;;;;;;;;;;;;;;;;;1535327;28;90933;-92
2021/08/29 12:31:30;;;;;;;;;;;;;;;;;;1510333;28;103214;-92
2021/08/29 12:32:21;;;;;;;;;;;;;;;;;;1505224;28;108526;-94
2021/08/29 12:33:09;;;;;;;;;;;;;;;;;;1510757;28;85839;-92
2021/08/29 12:33:54;;;;;;;;;;;;;;;;;;1511187;28;99434;-92
2021/08/29 12:34:39;;;;;;;;;;;;;;;;;;1509268;28;98310;-93
2021/08/29 12:35:24;;;;;;;;;;;;;;;;;;1511079;28;102156;-92
2021/08/29 12:36:12;;;;;;;;;;;;;;;;;;1511787;28;105496;-92
2021/08/29 12:37:06;;;;;;;;;;;;;;;;;;1509263;28;109628;-93
2021/08/29 12:38:00;;;;;;;;;;;;;;;;;;1511961;28;91701;-93
2021/08/29 12:39:50;;;;;;;;;;;;;;;;;;1499227;28;84064;-92
2021/08/29 12:40:42;;;;;;;;;;;;;;;;;;1499946;29;85637;-93
2021/08/29 12:41:32;;;;;;;;;;;;;;;;;;1504911;28;100254;-92
2021/08/29 12:42:17;;;;;;;;;;;;;;;;;;1505007;28;103709;-92
2021/08/29 12:43:02;;;;;;;;;;;;;;;;;;1502561;28;96873;-91
2021/08/29 12:43:47;;;;;;;;;;;;;;;;;;1505002;28;105483;-92
2021/08/29 12:44:32;;;;;;;;;;;;;;;;;;1504525;28;101084;-93
2021/08/29 12:45:18;;;;;;;;;;;;;;;;;;1503475;28;94456;-92
2021/08/29 12:46:05;;;;;;;;;;;;;;;;;;1504260;28;100541;-94
2021/08/29 12:46:50;;;;;;;;;;;;;;;;;;1505118;28;92625;-92
2021/08/29 12:47:44;;;;;;;;;;;;;;;;;;1507556;28;106138;-92
2021/08/29 12:48:29;;;;;;;;;;;;;;;;;;1499436;29;101303;-93
2021/08/29 12:49:20;;;;;;;;;;;;;;;;;;1499384;29;94907;-94
2021/08/29 12:50:11;;;;;;;;;;;;;;;;;;1501290;28;102079;-94
2021/08/29 12:51:03;;;;;;;;;;;;;;;;;;1498790;29;103495;-92
2021/08/29 12:52:01;;;;;;;;;;;;;;;;;;;;;
2021/08/29 12:52:46;;;;;;;;;;;;;;;;;;1496804;29;110752;-92
2021/08/29 12:53:53;;;;;;;;;;;;;;;;;;1499075;29;110279;-93
2021/08/29 12:54:37;;;;;;;;;;;;;;;;;;1467451;28;83852;-93
2021/08/29 12:55:35;;;;;;;;;;;;;;;;;;;;;
2021/08/29 12:56:21;;;;;;;;;;;;;;;;;;1402098;29;110672;-93
2021/08/29 12:57:06;;;;;;;;;;;;;;;;;;1409295;28;161410;-93
2021/08/29 12:57:51;;;;;;;;;;;;;;;;;;1433486;29;138770;-93
2021/08/29 12:58:36;;;;;;;;;;;;;;;;;;1494606;29;84873;-94
2021/08/29 12:59:21;;;;;;;;;;;;;;;;;;1508648;29;83447;-92
2021/08/29 13:00:09;;;;;;;;;;;;;;;;;;1508684;29;83468;-93
2021/08/29 13:00:54;;;;;;;;;;;;;;;;;;1508823;28;83577;-92
2021/08/29 13:01:39;;;;;;;;;;;;;;;;;;1508431;29;83467;-92
2021/08/29 13:02:26;;;;;;;;;;;;;;;;;;1514087;28;84110;-91
2021/08/29 13:03:16;;;;;;;;;;;;;;;;;;1514123;28;85286;-92
2021/08/29 13:04:02;;;;;;;;;;;;;;;;;;1511313;28;83979;-92
2021/08/29 13:04:49;;;;;;;;;;;;;;;;;;1514330;28;83778;-94
2021/08/29 13:05:42;;;;;;;;;;;;;;;;;;1519775;28;83401;-93
2021/08/29 13:06:27;;;;;;;;;;;;;;;;;;1517270;28;85585;-94
2021/08/29 13:07:12;;;;;;;;;;;;;;;;;;1525645;28;84173;-92
2021/08/29 13:07:57;;;;;;;;;;;;;;;;;;1525048;28;88074;-93
2021/08/29 13:08:45;;;;;;;;;;;;;;;;;;1523471;28;89724;-94
2021/08/29 13:09:34;;;;;;;;;;;;;;;;;;1528848;28;87594;-92
2021/08/29 13:10:36;;;;;;;;;;;;;;;;;;1528910;28;85008;-91
2021/08/29 13:11:22;;;;;;;;;;;;;;;;;;1524480;28;85211;-93
2021/08/29 13:12:11;;;;;;;;;;;;;;;;;;1510320;28;89127;-94
2021/08/29 13:12:56;;;;;;;;;;;;;;;;;;1492006;28;104441;-92
2021/08/29 13:13:43;;;;;;;;;;;;;;;;;;1480883;28;138666;-93
2021/08/29 13:14:28;;;;;;;;;;;;;;;;;;1468170;28;85058;-94
2021/08/29 13:15:29;;;;;;;;;;;;;;;;;;1466619;28;150342;-93
2021/08/29 13:16:16;;;;;;;;;;;;;;;;;;1456210;28;147381;-93
2021/08/29 13:17:01;;;;;;;;;;;;;;;;;;1451106;28;95326;-93
2021/08/29 13:17:47;;;;;;;;;;;;;;;;;;1443140;28;160226;-92
2021/08/29 13:18:32;;;;;;;;;;;;;;;;;;1437316;28;158837;-92
2021/08/29 13:19:17;;;;;;;;;;;;;;;;;;1438923;28;121825;-91
2021/08/29 13:20:02;;;;;;;;;;;;;;;;;;1437581;28;162770;-92
2021/08/29 13:20:47;;;;;;;;;;;;;;;;;;1438364;28;117406;-91
2021/08/29 13:21:32;;;;;;;;;;;;;;;;;;1441720;28;121679;-92
2021/08/29 13:22:28;;;;;;;;;;;;;;;;;;;;;
2021/08/29 13:23:13;;;;;;;;;;;;;;;;;;1442957;28;139739;-91
2021/08/29 13:23:58;;;;;;;;;;;;;;;;;;1444674;28;105610;-93
2021/08/29 13:24:53;;;;;;;;;;;;;;;;;;;;;
2021/08/29 13:25:48;;;;;;;;;;;;;;;;;;1451247;28;111536;-92
2021/08/29 13:27:38;;;;;;;;;;;;;;;;;;1524534;28;85118;-91
2021/08/29 13:28:24;;;;;;;;;;;;;;;;;;1550163;28;85838;-91
2021/08/29 13:29:14;;;;;;;;;;;;;;;;;;1550531;28;84891;-95
2021/08/29 13:30:08;;;;;;;;;;;;;;;;;;1550538;28;86367;-91
2021/08/29 13:31:01;;;;;;;;;;;;;;;;;;1550443;28;83912;-91
2021/08/29 13:31:51;;;;;;;;;;;;;;;;;;1544685;28;85331;-91
2021/08/29 13:32:42;;;;;;;;;;;;;;;;;;1544597;28;86792;-94
2021/08/29 13:33:28;;;;;;;;;;;;;;;;;;1547912;28;84265;-91
2021/08/29 13:34:13;;;;;;;;;;;;;;;;;;1553135;28;86363;-91
2021/08/29 13:34:58;;;;;;;;;;;;;;;;;;1544617;28;85381;-90
2021/08/29 13:35:46;;;;;;;;;;;;;;;;;;1544364;28;85531;-92
2021/08/29 13:36:31;;;;;;;;;;;;;;;;;;1540507;28;85041;-91
2021/08/29 13:37:18;;;;;;;;;;;;;;;;;;1546636;28;85469;-92
2021/08/29 13:38:03;;;;;;;;;;;;;;;;;;1544467;28;87095;-91
2021/08/29 13:38:48;;;;;;;;;;;;;;;;;;1544726;28;86184;-90
2021/08/29 13:39:34;;;;;;;;;;;;;;;;;;1546864;28;85315;-90
2021/08/29 13:40:19;;;;;;;;;;;;;;;;;;1552494;28;85415;-91
2021/08/29 13:41:14;;;;;;;;;;;;;;;;;;;;;
2021/08/29 13:42:02;;;;;;;;;;;;;;;;;;1552913;28;113915;-93
2021/08/29 13:42:47;;;;;;;;;;;;;;;;;;1556993;28;85935;-92
2021/08/29 13:43:33;;;;;;;;;;;;;;;;;;1556740;28;85380;-92
2021/08/29 13:44:18;;;;;;;;;;;;;;;;;;1554795;28;85296;-93
2021/08/29 13:45:05;;;;;;;;;;;;;;;;;;1556465;28;86662;-92
2021/08/29 13:45:50;;;;;;;;;;;;;;;;;;1556367;28;84073;-92
2021/08/29 13:46:35;;;;;;;;;;;;;;;;;;1554178;28;84862;-92
2021/08/29 13:47:20;;;;;;;;;;;;;;;;;;1544375;28;85199;-92
2021/08/29 13:48:05;;;;;;;;;;;;;;;;;;1544450;28;85197;-92
2021/08/29 13:48:50;;;;;;;;;;;;;;;;;;1544263;28;85579;-92
2021/08/29 13:49:38;;;;;;;;;;;;;;;;;;1546204;28;85746;-94
2021/08/29 13:50:23;;;;;;;;;;;;;;;;;;1544395;28;86322;-92
2021/08/29 13:51:08;;;;;;;;;;;;;;;;;;1541675;28;84012;-91
2021/08/29 13:51:54;;;;;;;;;;;;;;;;;;1540196;28;85366;-93
2021/08/29 13:52:39;;;;;;;;;;;;;;;;;;1538118;28;86153;-92
2021/08/29 13:53:24;;;;;;;;;;;;;;;;;;1540395;28;85692;-92
2021/08/29 13:54:09;;;;;;;;;;;;;;;;;;1540962;28;84040;-91
2021/08/29 13:54:54;;;;;;;;;;;;;;;;;;1538739;28;85192;-93
2021/08/29 13:55:39;;;;;;;;;;;;;;;;;;1540315;28;85240;-93
2021/08/29 13:56:25;;;;;;;;;;;;;;;;;;1543363;28;83429;-92
2021/08/29 13:57:10;;;;;;;;;;;;;;;;;;1538859;28;84539;-90
2021/08/29 13:57:55;;;;;;;;;;;;;;;;;;1540600;28;83180;-92
2021/08/29 13:58:40;;;;;;;;;;;;;;;;;;1540476;28;83573;-91
2021/08/29 13:59:25;;;;;;;;;;;;;;;;;;1538770;28;84145;-91
2021/08/29 14:00:11;;;;;;;;;;;;;;;;;;1540157;28;84464;-92
2021/08/29 14:00:56;;;;;;;;;;;;;;;;;;1541548;28;84389;-93
2021/08/29 14:01:41;;;;;;;;;;;;;;;;;;1542235;28;83759;-93
2021/08/29 14:02:26;;;;;;;;;;;;;;;;;;1546184;28;83918;-92
2021/08/29 14:03:11;;;;;;;;;;;;;;;;;;1546180;28;83550;-93
2021/08/29 14:03:56;;;;;;;;;;;;;;;;;;1544392;28;83794;-92
2021/08/29 14:04:42;;;;;;;;;;;;;;;;;;1546131;28;83387;-93
2021/08/29 14:05:27;;;;;;;;;;;;;;;;;;1549636;28;83395;-91
2021/08/29 14:06:12;;;;;;;;;;;;;;;;;;1538083;28;83085;-91
2021/08/29 14:06:57;;;;;;;;;;;;;;;;;;1540122;28;84491;-92
2021/08/29 14:07:42;;;;;;;;;;;;;;;;;;1543942;28;84695;-92
2021/08/29 14:08:27;;;;;;;;;;;;;;;;;;1544073;28;85331;-92
2021/08/29 14:09:12;;;;;;;;;;;;;;;;;;1546228;28;83730;-93
2021/08/29 14:09:58;;;;;;;;;;;;;;;;;;1552643;28;83686;-94
2021/08/29 14:10:43;;;;;;;;;;;;;;;;;;1550061;28;82914;-91
2021/08/29 14:11:28;;;;;;;;;;;;;;;;;;1550472;28;84425;-92
2021/08/29 14:12:13;;;;;;;;;;;;;;;;;;1552317;28;83522;-93
2021/08/29 14:12:58;;;;;;;;;;;;;;;;;;1550264;28;83448;-90
2021/08/29 14:13:43;;;;;;;;;;;;;;;;;;1544264;28;83529;-92
2021/08/29 14:14:28;;;;;;;;;;;;;;;;;;1546275;28;83704;-93
2021/08/29 14:15:13;;;;;;;;;;;;;;;;;;1544045;28;85021;-92
2021/08/29 14:15:59;;;;;;;;;;;;;;;;;;1546322;28;83112;-93
2021/08/29 14:16:44;;;;;;;;;;;;;;;;;;1546292;28;84335;-92
2021/08/29 14:17:29;;;;;;;;;;;;;;;;;;1547093;28;83046;-92
2021/08/29 14:18:15;;;;;;;;;;;;;;;;;;1546374;28;83814;-94
2021/08/29 14:19:00;;;;;;;;;;;;;;;;;;1544235;28;85242;-92
2021/08/29 14:19:45;;;;;;;;;;;;;;;;;;1546161;28;84391;-91
2021/08/29 14:20:31;;;;;;;;;;;;;;;;;;1546203;28;85595;-92
2021/08/29 14:21:16;;;;;;;;;;;;;;;;;;1550258;28;85809;-92
2021/08/29 14:22:01;;;;;;;;;;;;;;;;;;1550450;28;84738;-92
2021/08/29 14:22:46;;;;;;;;;;;;;;;;;;1545998;28;84528;-94
2021/08/29 14:23:31;;;;;;;;;;;;;;;;;;1544132;28;84946;-93
2021/08/29 14:24:16;;;;;;;;;;;;;;;;;;1546017;28;84714;-90
2021/08/29 14:25:01;;;;;;;;;;;;;;;;;;1546143;28;85451;-92
2021/08/29 14:25:46;;;;;;;;;;;;;;;;;;1544129;28;86314;-92
2021/08/29 14:26:32;;;;;;;;;;;;;;;;;;1546179;28;85938;-93
2021/08/29 14:27:17;;;;;;;;;;;;;;;;;;1546198;28;84881;-93
2021/08/29 14:28:02;;;;;;;;;;;;;;;;;;1544145;28;83565;-92
2021/08/29 14:28:47;;;;;;;;;;;;;;;;;;1546066;28;85048;-93
2021/08/29 14:29:33;;;;;;;;;;;;;;;;;;1546129;28;85893;-93
2021/08/29 14:30:19;;;;;;;;;;;;;;;;;;1540134;28;84994;-92
2021/08/29 14:31:04;;;;;;;;;;;;;;;;;;1540382;28;84784;-93
2021/08/29 14:31:49;;;;;;;;;;;;;;;;;;1540429;28;86108;-93
2021/08/29 14:32:34;;;;;;;;;;;;;;;;;;1538261;28;84829;-92
2021/08/29 14:33:19;;;;;;;;;;;;;;;;;;1540061;28;85143;-93
2021/08/29 14:34:04;;;;;;;;;;;;;;;;;;1544635;28;86201;-93
2021/08/29 14:34:49;;;;;;;;;;;;;;;;;;1544151;28;86137;-92
2021/08/29 14:35:35;;;;;;;;;;;;;;;;;;1544059;28;83877;-93
2021/08/29 14:36:20;;;;;;;;;;;;;;;;;;1540034;28;85090;-93
2021/08/29 14:37:05;;;;;;;;;;;;;;;;;;1544344;28;86199;-92
2021/08/29 14:37:50;;;;;;;;;;;;;;;;;;1547258;28;85959;-91
2021/08/29 14:38:35;;;;;;;;;;;;;;;;;;1548027;28;84446;-92
2021/08/29 14:39:20;;;;;;;;;;;;;;;;;;1545499;28;85605;-93
2021/08/29 14:40:05;;;;;;;;;;;;;;;;;;1547304;28;85294;-93
2021/08/29 14:40:50;;;;;;;;;;;;;;;;;;1545206;28;84897;-92
2021/08/29 14:41:36;;;;;;;;;;;;;;;;;;1545216;28;84473;-92
2021/08/29 14:42:24;;;;;;;;;;;;;;;;;;1547170;28;85419;-93
2021/08/29 14:43:10;;;;;;;;;;;;;;;;;;1545238;28;86568;-93
2021/08/29 14:43:55;;;;;;;;;;;;;;;;;;1545138;28;86817;-93
2021/08/29 14:44:40;;;;;;;;;;;;;;;;;;1546858;28;84374;-91
2021/08/29 14:45:25;;;;;;;;;;;;;;;;;;1547007;28;86679;-92
2021/08/29 14:46:10;;;;;;;;;;;;;;;;;;1551194;28;86677;-93
2021/08/29 14:46:55;;;;;;;;;;;;;;;;;;1484640;28;150407;-94
2021/08/29 14:47:40;;;;;;;;;;;;;;;;;;1540414;28;104957;-94
2021/08/29 14:48:25;;;;;;;;;;;;;;;;;;1539022;28;108592;-92
2021/08/29 14:49:11;;;;;;;;;;;;;;;;;;1536855;28;106598;-93
2021/08/29 14:49:56;;;;;;;;;;;;;;;;;;1536687;28;104363;-92
2021/08/29 14:50:41;;;;;;;;;;;;;;;;;;1539009;28;104247;-92
2021/08/29 14:51:26;;;;;;;;;;;;;;;;;;1542249;28;102449;-93
2021/08/29 14:52:11;;;;;;;;;;;;;;;;;;1540342;28;107575;-92
2021/08/29 14:52:56;;;;;;;;;;;;;;;;;;1539798;28;109554;-93
2021/08/29 14:53:41;;;;;;;;;;;;;;;;;;1542664;28;103721;-92
2021/08/29 14:54:26;;;;;;;;;;;;;;;;;;1540936;28;100078;-92
2021/08/29 14:55:12;;;;;;;;;;;;;;;;;;1540462;28;99106;-93
2021/08/29 14:55:57;;;;;;;;;;;;;;;;;;1542793;28;85575;-92
2021/08/29 14:56:42;;;;;;;;;;;;;;;;;;1538985;28;109826;-93
2021/08/29 14:57:27;;;;;;;;;;;;;;;;;;1539205;28;107170;-93
2021/08/29 14:58:12;;;;;;;;;;;;;;;;;;1539381;28;106024;-93
2021/08/29 14:58:58;;;;;;;;;;;;;;;;;;1534455;28;109332;-94